createdAt,value
2018-07-08T00:01:38.617Z,5.10
2018-07-08T00:04:07.324Z,6.17
2018-07-08T00:06:42.252Z,4.70
2018-07-08T00:09:11.635Z,5.50
2018-07-08T00:11:40.210Z,5.20
2018-07-08T00:14:08.567Z,8.70
2018-07-08T00:16:37.035Z,5.33
2018-07-08T00:19:05.533Z,4.20
2018-07-08T00:21:34.019Z,6.37
2018-07-08T00:24:02.573Z,6.90
2018-07-08T00:26:31.049Z,4.20
2018-07-08T00:28:59.557Z,7.57
2018-07-08T00:31:28.021Z,5.83
2018-07-08T00:33:56.741Z,3.87
2018-07-08T00:36:24.832Z,6.00
2018-07-08T00:38:52.900Z,4.93
2018-07-08T00:41:21.397Z,5.13
2018-07-08T00:43:49.897Z,6.33
2018-07-08T00:46:18.726Z,5.30
2018-07-08T00:48:46.883Z,5.33
2018-07-08T00:51:15.424Z,6.60
2018-07-08T00:53:44.452Z,5.57
2018-07-08T00:56:12.925Z,5.23
2018-07-08T00:58:41.430Z,5.30
2018-07-08T01:01:10.021Z,4.70
2018-07-08T01:03:38.145Z,5.60
2018-07-08T01:06:06.683Z,4.80
2018-07-08T01:08:34.937Z,5.20
2018-07-08T01:11:03.514Z,6.17
2018-07-08T01:13:32.014Z,4.07
2018-07-08T01:16:00.382Z,4.60
2018-07-08T01:18:28.882Z,5.10
2018-07-08T01:20:57.349Z,4.87
2018-07-08T01:23:25.891Z,4.60
2018-07-08T01:26:06.572Z,8.37
2018-07-08T01:28:35.122Z,4.73
2018-07-08T01:31:03.732Z,4.40
2018-07-08T01:33:33.358Z,5.50
2018-07-08T01:36:01.930Z,5.67
2018-07-08T01:38:30.393Z,5.47
2018-07-08T01:40:58.900Z,4.07
2018-07-08T01:43:27.914Z,3.63
2018-07-08T01:45:56.614Z,5.53
2018-07-08T01:48:25.100Z,4.50
2018-07-08T01:50:53.648Z,4.30
2018-07-08T01:53:22.213Z,4.43
2018-07-08T01:55:50.776Z,4.70
2018-07-08T01:58:19.279Z,4.43
2018-07-08T02:00:47.830Z,6.00
2018-07-08T02:03:16.301Z,4.50
2018-07-08T02:05:44.802Z,4.70
2018-07-08T02:08:13.310Z,4.33
2018-07-08T02:10:41.852Z,4.77
2018-07-08T02:13:10.359Z,5.23
2018-07-08T02:15:38.838Z,4.50
2018-07-08T02:18:07.393Z,4.67
2018-07-08T02:20:35.961Z,4.43
2018-07-08T02:23:05.039Z,4.60
2018-07-08T02:25:33.638Z,5.30
2018-07-08T02:28:02.121Z,5.10
2018-07-08T02:30:30.706Z,4.77
2018-07-08T02:32:59.246Z,5.97
2018-07-08T02:35:27.732Z,5.20
2018-07-08T02:37:56.885Z,4.80
2018-07-08T02:40:25.326Z,4.20
2018-07-08T02:42:53.840Z,5.03
2018-07-08T02:45:22.487Z,5.47
2018-07-08T02:47:50.995Z,5.50
2018-07-08T02:50:19.501Z,5.37
2018-07-08T02:52:47.965Z,4.93
2018-07-08T02:55:16.560Z,4.10
2018-07-08T02:57:45.026Z,4.50
2018-07-08T03:00:13.636Z,4.57
2018-07-08T03:02:42.206Z,6.90
2018-07-08T03:05:11.101Z,8.10
2018-07-08T03:07:39.605Z,16.13
2018-07-08T03:10:08.278Z,5.60
2018-07-08T03:12:36.796Z,16.20
2018-07-08T03:15:05.466Z,5.30
2018-07-08T03:17:33.941Z,4.17
2018-07-08T03:20:02.439Z,6.03
2018-07-08T03:22:31.079Z,5.17
2018-07-08T03:24:59.606Z,7.23
2018-07-08T03:27:28.185Z,6.30
2018-07-08T03:29:56.646Z,4.03
2018-07-08T03:32:25.109Z,9.53
2018-07-08T03:34:53.623Z,5.63
2018-07-08T03:37:22.262Z,5.33
2018-07-08T03:39:50.784Z,4.77
2018-07-08T03:42:19.270Z,5.40
2018-07-08T03:44:47.716Z,5.73
2018-07-08T03:47:16.630Z,11.50
2018-07-08T03:49:45.829Z,4.83
2018-07-08T03:52:14.421Z,4.93
2018-07-08T03:54:42.906Z,5.83
2018-07-08T03:57:11.512Z,5.33
2018-07-08T03:59:40.003Z,12.47
2018-07-08T04:02:08.576Z,16.00
2018-07-08T04:04:36.737Z,5.10
2018-07-08T04:07:05.298Z,21.07
2018-07-08T04:09:33.728Z,7.83
2018-07-08T04:12:02.266Z,12.63
2018-07-08T04:14:30.784Z,4.83
2018-07-08T04:16:58.924Z,6.30
2018-07-08T04:19:27.324Z,5.70
2018-07-08T04:21:55.805Z,4.63
2018-07-08T04:24:23.921Z,8.20
2018-07-08T04:26:52.376Z,4.50
2018-07-08T04:29:22.029Z,4.53
2018-07-08T04:31:50.525Z,6.60
2018-07-08T04:34:18.978Z,5.07
2018-07-08T04:36:47.425Z,12.33
2018-07-08T04:39:15.933Z,4.20
2018-07-08T04:41:44.385Z,7.60
2018-07-08T04:44:13.063Z,7.33
2018-07-08T04:46:41.619Z,14.03
2018-07-08T04:49:10.120Z,11.03
2018-07-08T04:51:38.323Z,4.57
2018-07-08T04:54:06.858Z,6.53
2018-07-08T04:56:35.336Z,4.67
2018-07-08T04:59:03.874Z,5.20
2018-07-08T05:01:32.370Z,7.33
2018-07-08T05:04:00.930Z,7.03
2018-07-08T05:06:29.431Z,5.57
2018-07-08T05:08:57.906Z,7.60
2018-07-08T05:11:26.369Z,8.63
2018-07-08T05:13:54.801Z,6.00
2018-07-08T05:16:23.314Z,9.23
2018-07-08T05:18:51.900Z,5.23
2018-07-08T05:21:19.997Z,4.97
2018-07-08T05:23:48.482Z,8.27
2018-07-08T05:26:17.820Z,13.70
2018-07-08T05:28:46.364Z,8.90
2018-07-08T05:31:14.858Z,8.87
2018-07-08T05:33:43.533Z,9.03
2018-07-08T05:36:12.009Z,10.57
2018-07-08T05:38:41.393Z,6.07
2018-07-08T05:41:12.929Z,6.63
2018-07-08T05:43:41.593Z,5.53
2018-07-08T05:46:10.093Z,5.23
2018-07-08T05:48:38.288Z,6.93
2018-07-08T05:51:06.865Z,5.90
2018-07-08T05:53:35.010Z,12.83
2018-07-08T05:56:03.466Z,6.73
2018-07-08T05:58:31.937Z,5.97
2018-07-08T06:01:00.566Z,10.47
2018-07-08T06:03:28.690Z,6.93
2018-07-08T06:05:58.749Z,7.47
2018-07-08T06:08:27.262Z,9.50
2018-07-08T06:10:55.792Z,8.53
2018-07-08T06:13:24.265Z,6.10
2018-07-08T06:15:52.755Z,6.30
2018-07-08T06:18:21.229Z,9.23
2018-07-08T06:20:49.835Z,6.63
2018-07-08T06:23:18.302Z,8.40
2018-07-08T06:25:53.330Z,7.77
2018-07-08T06:28:21.846Z,10.80
2018-07-08T06:30:50.021Z,13.30
2018-07-08T06:33:18.532Z,8.90
2018-07-08T06:35:47.170Z,11.43
2018-07-08T06:38:15.660Z,11.17
2018-07-08T06:40:44.171Z,12.73
2018-07-08T06:43:12.647Z,14.43
2018-07-08T06:45:41.182Z,10.93
2018-07-08T06:48:09.645Z,17.37
2018-07-08T06:50:38.150Z,15.80
2018-07-08T06:53:06.657Z,13.50
2018-07-08T06:55:34.820Z,19.87
2018-07-08T06:58:03.331Z,14.03
2018-07-08T07:00:31.880Z,9.03
2018-07-08T07:03:00.085Z,12.27
2018-07-08T07:05:28.626Z,8.23
2018-07-08T07:07:57.228Z,7.67
2018-07-08T07:10:25.858Z,7.30
2018-07-08T07:12:54.400Z,6.60
2018-07-08T07:15:22.954Z,8.97
2018-07-08T07:17:51.525Z,8.10
2018-07-08T07:20:20.000Z,7.90
2018-07-08T07:22:48.578Z,5.90
2018-07-08T07:25:17.039Z,7.60
2018-07-08T07:27:45.504Z,5.60
2018-07-08T07:30:13.978Z,5.80
2018-07-08T07:32:42.699Z,6.70
2018-07-08T07:35:11.221Z,6.80
2018-07-08T07:37:39.838Z,5.10
2018-07-08T07:40:08.362Z,3.93
2018-07-08T07:42:37.013Z,12.33
2018-07-08T07:45:06.464Z,3.57
2018-07-08T07:47:35.057Z,2.90
2018-07-08T07:50:03.595Z,5.33
2018-07-08T07:52:32.085Z,2.40
2018-07-08T07:55:00.587Z,7.70
2018-07-08T07:57:29.721Z,2.20
2018-07-08T07:59:58.427Z,2.20
2018-07-08T08:02:27.194Z,2.90
2018-07-08T08:04:55.679Z,2.20
2018-07-08T08:07:23.866Z,3.10
2018-07-08T08:09:52.371Z,2.27
2018-07-08T08:12:21.245Z,2.20
2018-07-08T08:14:49.816Z,3.13
2018-07-08T08:17:19.395Z,4.73
2018-07-08T08:19:47.995Z,2.60
2018-07-08T08:22:16.742Z,2.50
2018-07-08T08:24:45.230Z,2.77
2018-07-08T08:27:13.798Z,2.30
2018-07-08T08:29:42.803Z,2.20
2018-07-08T08:32:11.403Z,4.97
2018-07-08T08:34:56.446Z,2.33
2018-07-08T08:37:32.497Z,2.50
2018-07-08T08:40:01.272Z,3.77
2018-07-08T08:42:29.865Z,4.00
2018-07-08T08:44:59.196Z,1.67
2018-07-08T08:47:28.735Z,2.17
2018-07-08T08:49:57.325Z,2.43
2018-07-08T08:52:25.928Z,2.07
2018-07-08T08:54:56.878Z,2.03
2018-07-08T08:57:25.922Z,1.90
2018-07-08T08:59:55.259Z,2.00
2018-07-08T09:02:23.735Z,1.53
2018-07-08T09:04:52.528Z,2.07
2018-07-08T09:07:21.716Z,2.40
2018-07-08T09:09:50.509Z,2.83
2018-07-08T09:12:19.153Z,2.13
2018-07-08T09:14:47.668Z,1.53
2018-07-08T09:17:15.891Z,1.87
2018-07-08T09:19:44.556Z,5.07
2018-07-08T09:22:14.176Z,1.83
2018-07-08T09:24:42.718Z,3.43
2018-07-08T09:27:11.217Z,3.40
2018-07-08T09:29:40.240Z,2.20
2018-07-08T09:32:08.860Z,1.80
2018-07-08T09:34:37.069Z,1.70
2018-07-08T09:37:05.768Z,1.57
2018-07-08T09:39:34.967Z,1.20
2018-07-08T09:42:03.421Z,1.57
2018-07-08T09:44:32.279Z,1.50
2018-07-08T09:47:01.451Z,1.40
2018-07-08T09:49:29.984Z,1.90
2018-07-08T09:51:58.609Z,3.10
2018-07-08T09:54:27.230Z,1.70
2018-07-08T09:56:55.751Z,2.00
2018-07-08T09:59:24.227Z,3.47
2018-07-08T10:01:52.757Z,1.90
2018-07-08T10:04:22.789Z,1.30
2018-07-08T10:06:52.757Z,1.80
2018-07-08T10:09:22.581Z,1.80
2018-07-08T10:11:51.408Z,1.50
2018-07-08T10:14:21.432Z,2.57
2018-07-08T10:16:49.933Z,1.50
2018-07-08T10:19:19.387Z,2.67
2018-07-08T10:21:47.966Z,1.80
2018-07-08T10:24:16.466Z,1.53
2018-07-08T10:26:45.570Z,3.40
2018-07-08T10:29:17.507Z,2.00
2018-07-08T10:31:49.791Z,2.03
2018-07-08T10:34:19.013Z,1.47
2018-07-08T10:36:47.651Z,1.50
2018-07-08T10:39:16.862Z,1.60
2018-07-08T10:41:45.479Z,1.67
2018-07-08T10:44:14.032Z,1.77
2018-07-08T10:46:43.507Z,1.47
2018-07-08T10:49:11.996Z,1.30
2018-07-08T10:51:40.547Z,1.40
2018-07-08T10:54:09.365Z,2.03
2018-07-08T10:56:38.660Z,1.63
2018-07-08T10:59:07.283Z,1.63
2018-07-08T11:01:36.716Z,1.30
2018-07-08T11:04:05.422Z,1.03
2018-07-08T11:06:34.028Z,3.53
2018-07-08T11:09:02.823Z,1.10
2018-07-08T11:11:31.695Z,2.27
2018-07-08T11:14:00.155Z,1.17
2018-07-08T11:16:28.738Z,2.77
2018-07-08T11:18:57.471Z,1.30
2018-07-08T11:21:25.802Z,4.43
2018-07-08T11:23:54.318Z,2.97
2018-07-08T11:26:22.993Z,1.80
2018-07-08T11:28:51.536Z,1.27
2018-07-08T11:31:20.322Z,1.33
2018-07-08T11:33:48.968Z,0.97
2018-07-08T11:36:18.035Z,0.90
2018-07-08T11:38:47.216Z,3.40
2018-07-08T11:41:15.897Z,2.73
2018-07-08T11:43:44.655Z,2.30
2018-07-08T11:46:13.450Z,1.20
2018-07-08T11:48:41.757Z,0.90
2018-07-08T11:51:10.270Z,0.80
2018-07-08T11:53:38.866Z,1.23
2018-07-08T11:56:07.608Z,1.20
2018-07-08T11:58:43.479Z,0.97
2018-07-08T12:01:12.229Z,1.87
2018-07-08T12:03:40.900Z,1.10
2018-07-08T12:06:09.408Z,1.10
2018-07-08T12:08:38.351Z,2.70
2018-07-08T12:11:06.969Z,0.80
2018-07-08T12:13:35.611Z,1.90
2018-07-08T12:16:04.656Z,0.80
2018-07-08T12:18:40.963Z,1.37
2018-07-08T12:21:10.128Z,1.43
2018-07-08T12:23:41.538Z,1.30
2018-07-08T12:26:10.901Z,1.17
2018-07-08T12:28:40.215Z,1.07
2018-07-08T12:31:09.404Z,1.10
2018-07-08T12:33:38.259Z,1.27
2018-07-08T12:36:08.252Z,0.83
2018-07-08T12:38:36.781Z,1.63
2018-07-08T12:41:05.339Z,1.77
2018-07-08T12:43:34.138Z,1.43
2018-07-08T12:46:03.449Z,1.03
2018-07-08T12:48:32.297Z,1.80
2018-07-08T12:51:00.590Z,1.00
2018-07-08T12:53:29.667Z,1.30
2018-07-08T12:55:57.905Z,1.40
2018-07-08T12:58:26.857Z,1.33
2018-07-08T13:00:55.064Z,1.10
2018-07-08T13:03:24.472Z,4.00
2018-07-08T13:05:53.317Z,1.43
2018-07-08T13:08:21.522Z,2.93
2018-07-08T13:10:50.105Z,1.83
2018-07-08T13:13:18.590Z,1.73
2018-07-08T13:15:47.142Z,1.00
2018-07-08T13:18:16.963Z,1.10
2018-07-08T13:20:45.478Z,1.40
2018-07-08T13:23:14.082Z,2.13
2018-07-08T13:25:42.965Z,1.00
2018-07-08T13:28:11.534Z,1.20
2018-07-08T13:30:40.153Z,2.30
2018-07-08T13:33:08.758Z,1.93
2018-07-08T13:35:37.276Z,1.10
2018-07-08T13:38:05.938Z,1.60
2018-07-08T13:40:35.309Z,1.50
2018-07-08T13:43:03.883Z,1.60
2018-07-08T13:45:32.683Z,1.83
2018-07-08T13:48:00.829Z,1.73
2018-07-08T13:50:29.389Z,1.40
2018-07-08T13:52:58.129Z,1.57
2018-07-08T13:55:26.697Z,1.43
2018-07-08T13:57:55.447Z,1.77
2018-07-08T14:00:23.973Z,2.80
2018-07-08T14:02:52.813Z,1.23
2018-07-08T14:05:21.355Z,2.30
2018-07-08T14:07:49.878Z,1.63
2018-07-08T14:10:18.355Z,2.27
2018-07-08T14:12:46.640Z,1.60
2018-07-08T14:15:15.430Z,1.43
2018-07-08T14:17:44.046Z,1.03
2018-07-08T14:20:12.649Z,1.60
2018-07-08T14:22:41.312Z,1.33
2018-07-08T14:25:09.856Z,8.90
2018-07-08T14:27:38.665Z,3.10
2018-07-08T14:30:07.218Z,1.70
2018-07-08T14:32:36.009Z,1.30
2018-07-08T14:35:04.534Z,1.10
2018-07-08T14:37:33.322Z,3.60
2018-07-08T14:40:01.834Z,0.90
2018-07-08T14:42:30.311Z,1.50
2018-07-08T14:44:58.854Z,2.07
2018-07-08T14:47:27.419Z,1.10
2018-07-08T14:49:55.884Z,1.90
2018-07-08T14:52:24.287Z,1.27
2018-07-08T14:54:52.843Z,1.50
2018-07-08T14:57:21.511Z,1.33
2018-07-08T14:59:49.671Z,1.17
2018-07-08T15:02:18.265Z,1.00
2018-07-08T15:04:46.564Z,2.30
2018-07-08T15:07:15.174Z,1.50
2018-07-08T15:09:43.665Z,1.70
2018-07-08T15:12:12.447Z,1.73
2018-07-08T15:14:41.152Z,1.23
2018-07-08T15:17:09.795Z,1.70
2018-07-08T15:19:38.347Z,1.40
2018-07-08T15:22:06.895Z,1.90
2018-07-08T15:24:35.436Z,1.17
2018-07-08T15:27:03.596Z,1.27
2018-07-08T15:29:32.291Z,1.40
2018-07-08T15:32:00.772Z,1.17
2018-07-08T15:34:29.321Z,1.20
2018-07-08T15:36:57.949Z,1.60
2018-07-08T15:39:26.717Z,1.20
2018-07-08T15:41:54.907Z,4.17
2018-07-08T15:44:23.561Z,4.33
2018-07-08T15:46:52.154Z,4.90
2018-07-08T15:49:20.900Z,0.97
2018-07-08T15:51:48.975Z,1.30
2018-07-08T15:54:17.554Z,1.70
2018-07-08T15:56:46.115Z,1.60
2018-07-08T15:59:14.622Z,1.47
2018-07-08T16:01:43.154Z,1.40
2018-07-08T16:04:11.596Z,1.30
2018-07-08T16:06:40.281Z,1.07
2018-07-08T16:09:08.858Z,1.13
2018-07-08T16:11:37.470Z,1.13
2018-07-08T16:14:06.058Z,2.90
2018-07-08T16:16:34.666Z,4.70
2018-07-08T16:19:03.194Z,1.20
2018-07-08T16:21:32.125Z,1.23
2018-07-08T16:24:00.507Z,1.73
2018-07-08T16:26:29.102Z,2.03
2018-07-08T16:28:57.642Z,1.17
2018-07-08T16:31:26.214Z,1.43
2018-07-08T16:33:54.795Z,1.60
2018-07-08T16:36:23.349Z,1.10
2018-07-08T16:38:51.962Z,1.10
2018-07-08T16:41:20.771Z,1.40
2018-07-08T16:43:49.338Z,1.53
2018-07-08T16:46:19.173Z,1.40
2018-07-08T16:48:47.878Z,1.20
2018-07-08T16:51:16.469Z,1.50
2018-07-08T16:53:45.030Z,1.57
2018-07-08T16:56:13.562Z,1.20
2018-07-08T16:58:42.179Z,2.97
2018-07-08T17:01:10.721Z,1.50
2018-07-08T17:03:39.235Z,1.90
2018-07-08T17:06:07.818Z,2.03
2018-07-08T17:08:36.332Z,1.70
2018-07-08T17:11:04.545Z,1.70
2018-07-08T17:13:33.466Z,1.70
2018-07-08T17:16:02.128Z,6.63
2018-07-08T17:18:31.096Z,2.33
2018-07-08T17:21:00.043Z,1.23
2018-07-08T17:23:28.563Z,2.73
2018-07-08T17:25:57.346Z,2.30
2018-07-08T17:28:25.536Z,1.50
2018-07-08T17:30:54.187Z,1.37
2018-07-08T17:33:23.355Z,2.37
2018-07-08T17:35:51.910Z,1.67
2018-07-08T17:38:20.660Z,2.03
2018-07-08T17:40:49.264Z,2.03
2018-07-08T17:43:17.825Z,1.93
2018-07-08T17:45:46.663Z,2.10
2018-07-08T17:48:15.806Z,1.97
2018-07-08T17:50:44.515Z,1.73
2018-07-08T17:53:13.023Z,6.20
2018-07-08T17:55:41.488Z,2.87
2018-07-08T17:58:10.052Z,1.70
2018-07-08T18:00:38.418Z,1.80
2018-07-08T18:03:06.951Z,1.83
2018-07-08T18:05:35.612Z,1.10
2018-07-08T18:08:04.194Z,1.37
2018-07-08T18:10:34.281Z,3.30
2018-07-08T18:13:02.888Z,1.83
2018-07-08T18:15:31.411Z,5.23
2018-07-08T18:18:00.588Z,1.50
2018-07-08T18:20:29.148Z,2.10
2018-07-08T18:22:57.717Z,1.80
2018-07-08T18:25:26.592Z,3.93
2018-07-08T18:27:55.232Z,1.70
2018-07-08T18:30:23.795Z,1.60
2018-07-08T18:32:53.268Z,2.07
2018-07-08T18:35:21.967Z,1.67
2018-07-08T18:37:50.290Z,1.30
2018-07-08T18:40:18.802Z,1.80
2018-07-08T18:42:47.654Z,1.33
2018-07-08T18:45:16.553Z,1.67
2018-07-08T18:47:45.098Z,3.70
2018-07-08T18:50:13.718Z,1.80
2018-07-08T18:52:42.450Z,1.80
2018-07-08T18:55:11.081Z,1.60
2018-07-08T18:57:39.848Z,2.50
2018-07-08T19:00:08.409Z,1.80
2018-07-08T19:02:36.974Z,3.37
2018-07-08T19:05:05.676Z,1.43
2018-07-08T19:07:34.584Z,2.00
2018-07-08T19:10:03.613Z,2.07
2018-07-08T19:12:32.348Z,3.60
2018-07-08T19:15:00.868Z,2.10
2018-07-08T19:17:30.364Z,1.80
2018-07-08T19:19:59.090Z,3.30
2018-07-08T19:22:27.854Z,5.00
2018-07-08T19:24:57.423Z,1.70
2018-07-08T19:27:25.785Z,2.03
2018-07-08T19:29:54.361Z,2.30
2018-07-08T19:32:23.557Z,2.23
2018-07-08T19:34:51.993Z,1.70
2018-07-08T19:37:20.850Z,23.27
2018-07-08T19:39:49.423Z,13.83
2018-07-08T19:42:17.680Z,10.43
2018-07-08T19:44:46.188Z,7.13
2018-07-08T19:47:14.757Z,7.50
2018-07-08T19:49:49.501Z,4.60
2018-07-08T19:52:18.821Z,3.70
2018-07-08T19:54:47.628Z,2.53
2018-07-08T19:57:22.804Z,3.10
2018-07-08T19:59:51.306Z,2.03
2018-07-08T20:02:19.970Z,2.07
2018-07-08T20:04:48.759Z,2.03
2018-07-08T20:07:20.898Z,1.60
2018-07-08T20:09:49.687Z,1.40
2018-07-08T20:12:18.488Z,1.90
2018-07-08T20:14:47.078Z,1.60
2018-07-08T20:17:15.672Z,2.70
2018-07-08T20:19:44.250Z,4.10
2018-07-08T20:22:12.982Z,2.80
2018-07-08T20:24:42.018Z,2.50
2018-07-08T20:27:10.865Z,2.60
2018-07-08T20:29:39.470Z,6.00
2018-07-08T20:32:08.019Z,6.30
2018-07-08T20:34:36.697Z,2.67
2018-07-08T20:37:04.885Z,4.40
2018-07-08T20:39:33.426Z,5.93
2018-07-08T20:42:02.886Z,4.73
2018-07-08T20:44:31.500Z,2.50
2018-07-08T20:47:00.370Z,2.57
2018-07-08T20:49:28.910Z,3.23
2018-07-08T20:51:58.315Z,2.27
2018-07-08T20:54:26.677Z,1.67
2018-07-08T20:56:56.262Z,2.70
2018-07-08T20:59:24.789Z,4.67
2018-07-08T21:01:52.959Z,3.00
2018-07-08T21:04:22.130Z,4.00
2018-07-08T21:06:50.759Z,2.20
2018-07-08T21:09:19.278Z,3.53
2018-07-08T21:11:47.753Z,9.90
2018-07-08T21:14:16.361Z,5.37
2018-07-08T21:16:44.878Z,7.20
2018-07-08T21:19:13.433Z,1.70
2018-07-08T21:21:42.032Z,2.33
2018-07-08T21:24:10.625Z,3.50
2018-07-08T21:26:39.221Z,2.60
2018-07-08T21:29:07.768Z,3.47
2018-07-08T21:31:36.296Z,4.93
2018-07-08T21:34:04.907Z,2.13
2018-07-08T21:36:33.445Z,3.20
2018-07-08T21:39:02.098Z,4.00
2018-07-08T21:41:31.333Z,2.40
2018-07-08T21:43:59.881Z,1.70
2018-07-08T21:46:28.397Z,2.37
2018-07-08T21:48:56.966Z,2.17
2018-07-08T21:51:25.137Z,3.10
2018-07-08T21:53:53.905Z,19.33
2018-07-08T21:56:22.446Z,22.30
2018-07-08T21:58:51.517Z,16.57
2018-07-08T22:01:23.714Z,4.17
2018-07-08T22:03:52.882Z,8.53
2018-07-08T22:06:21.621Z,3.50
2018-07-08T22:08:50.134Z,4.73
2018-07-08T22:11:18.821Z,5.20
2018-07-08T22:13:47.514Z,4.70
2018-07-08T22:16:16.051Z,12.73
2018-07-08T22:18:44.631Z,3.77
2018-07-08T22:21:13.124Z,5.97
2018-07-08T22:23:41.680Z,9.97
2018-07-08T22:26:10.160Z,8.10
2018-07-08T22:28:38.688Z,10.10
2018-07-08T22:31:13.748Z,11.30
2018-07-08T22:33:42.347Z,5.77
2018-07-08T22:36:11.006Z,4.67
2018-07-08T22:38:39.476Z,3.50
2018-07-08T22:41:08.051Z,2.50
2018-07-08T22:43:36.572Z,2.70
2018-07-08T22:46:05.154Z,3.70
2018-07-08T22:48:33.666Z,2.07
2018-07-08T22:51:02.194Z,2.27
2018-07-08T22:53:30.734Z,2.43
2018-07-08T22:55:59.235Z,3.37
2018-07-08T22:58:27.707Z,2.53
2018-07-08T23:01:07.290Z,2.50
2018-07-08T23:03:54.839Z,5.00
2018-07-08T23:06:23.362Z,3.30
2018-07-08T23:08:52.676Z,3.23
2018-07-08T23:11:21.916Z,3.80
2018-07-08T23:13:51.354Z,2.60
2018-07-08T23:16:20.601Z,4.20
2018-07-08T23:18:49.059Z,6.53
2018-07-08T23:21:17.697Z,3.23
2018-07-08T23:23:46.462Z,3.43
2018-07-08T23:26:14.644Z,3.67
2018-07-08T23:28:43.088Z,6.00
2018-07-08T23:31:12.308Z,3.60
2018-07-08T23:33:40.717Z,2.83
2018-07-08T23:36:09.863Z,3.27
2018-07-08T23:38:38.801Z,2.80
2018-07-08T23:41:08.385Z,5.03
2018-07-08T23:43:36.920Z,7.37
2018-07-08T23:46:05.830Z,2.33
2018-07-08T23:48:34.524Z,2.50
2018-07-08T23:51:03.209Z,3.33
2018-07-08T23:53:31.882Z,3.40
2018-07-08T23:56:00.458Z,2.00
2018-07-08T23:58:28.939Z,2.37
